Bookmark and Share
Track history (hours):
 

Brilliance Of The Seas

Operator: Royal Caribbean Cruises Ltd

Last reported at 2014-Apr-12 21:32 UTC. Time now 2014-Apr-17 06:49 UTC.
Position N 27°44' W 082°32'.

Type: Ship. MMSI: 311361000.

NotesDate/timePositionNaut miles runAvg speedWind from/ knotsBaromVisibWave heightAir tempDewpointWater temp
2014-Apr-12 21:32N 27°44' W 082°32'1111.7
2014-Apr-12 20:33N 27°55' W 082°26'2 2.2
2014-Apr-12 19:33N 27°57' W 082°27'0 0.0
2014-Apr-12 18:33N 27°57' W 082°27'0 0.0
2014-Apr-12 17:33N 27°57' W 082°27'0 0.0
2014-Apr-12 16:33N 27°57' W 082°27'0 0.0
2014-Apr-12 15:33N 27°57' W 082°27'0 0.0
2014-Apr-12 14:33N 27°57' W 082°27'0 0.0
2014-Apr-12 13:33N 27°57' W 082°27'0 0.0
2014-Apr-12 12:33N 27°57' W 082°27'0 0.0
2014-Apr-12 11:33N 27°57' W 082°27'1 0.7
2014-Apr-12 10:34N 27°56' W 082°27'8 7.6
2014-Apr-12 09:33N 27°48' W 082°27'1212.1
2014-Apr-12 08:33N 27°39' W 082°37'  
2014-Apr-07 21:33N 27°45' W 082°32'1111.2
2014-Apr-07 20:33N 27°55' W 082°27'2 2.0
2014-Apr-07 19:32N 27°57' W 082°27'0 0.0
2014-Apr-07 17:29N 27°57' W 082°27'0 0.0
2014-Apr-07 16:32N 27°57' W 082°27'0 0.0
2014-Apr-07 15:32N 27°57' W 082°27'0 0.0
2014-Apr-07 14:32N 27°57' W 082°27'0 0.0
2014-Apr-07 13:29N 27°57' W 082°27'0 0.0
2014-Apr-07 12:32N 27°57' W 082°27'0 0.0
2014-Apr-07 11:32N 27°57' W 082°27'0 0.5
2014-Apr-07 10:33N 27°56' W 082°27'7 6.9
2014-Apr-07 09:34N 27°49' W 082°27'1313.2
2014-Apr-07 08:33N 27°39' W 082°36'2713.3
2014-Apr-07 06:33N 27°34' W 083°06'1211.7
2014-Apr-07 05:33N 27°24' W 083°13'1312.5
2014-Apr-07 04:33N 27°12' W 083°19'1712.5
2014-Apr-07 03:10N 26°57' W 083°28'  
2014-Apr-04 00:32N 27°44' W 082°32'1010.0
2014-Apr-03 23:33N 27°52' W 082°27'4 4.2
2014-Apr-03 22:33N 27°57' W 082°27'0 0.0
2014-Apr-03 21:33N 27°57' W 082°27'0 0.0
2014-Apr-03 20:32N 27°57' W 082°27'0 0.0
2014-Apr-03 19:32N 27°57' W 082°27'0 0.0
2014-Apr-03 18:32N 27°57' W 082°27'0 0.0
2014-Apr-03 17:32N 27°57' W 082°27'0 0.0
2014-Apr-03 16:32N 27°57' W 082°27'0 0.0
2014-Apr-03 15:29N 27°57' W 082°27'0 0.0
2014-Apr-03 14:32N 27°57' W 082°27'0 0.0
2014-Apr-03 13:33N 27°57' W 082°27'0 0.0
2014-Apr-03 12:32N 27°57' W 082°27'0 0.0
2014-Apr-03 11:32N 27°57' W 082°27'0 0.2
2014-Apr-03 10:33N 27°57' W 082°27'6 6.2
2014-Apr-03 09:33N 27°50' W 082°27'1312.7
2014-Apr-03 08:33N 27°40' W 082°36'  

Dump ship's entire track history

sailing weather and tide predictions

Brilliance Of The Seas — C6SJ5 — position and weather